sensor_id;sensor_type;location;lat;lon;timestamp;temperature;humidity
47861;HTU21D;33620;52.340;5.984;2023-05-14T00:02:11;16.14;67.62
47861;HTU21D;33620;52.340;5.984;2023-05-14T00:04:36;16.13;67.74
47861;HTU21D;33620;52.340;5.984;2023-05-14T00:07:02;16.16;67.63
47861;HTU21D;33620;52.340;5.984;2023-05-14T00:09:27;16.22;67.42
47861;HTU21D;33620;52.340;5.984;2023-05-14T00:11:54;16.27;67.13
47861;HTU21D;33620;52.340;5.984;2023-05-14T00:14:19;16.25;67.14
47861;HTU21D;33620;52.340;5.984;2023-05-14T00:16:45;16.25;67.10
47861;HTU21D;33620;52.340;5.984;2023-05-14T00:19:10;16.25;67.30
47861;HTU21D;33620;52.340;5.984;2023-05-14T00:21:35;16.26;67.09
47861;HTU21D;33620;52.340;5.984;2023-05-14T00:24:00;16.20;66.88
47861;HTU21D;33620;52.340;5.984;2023-05-14T00:26:26;16.08;67.17
47861;HTU21D;33620;52.340;5.984;2023-05-14T00:28:51;16.00;67.67
47861;HTU21D;33620;52.340;5.984;2023-05-14T00:31:16;15.91;67.94
47861;HTU21D;33620;52.340;5.984;2023-05-14T00:33:42;15.77;68.26
47861;HTU21D;33620;52.340;5.984;2023-05-14T00:36:07;15.65;68.80
47861;HTU21D;33620;52.340;5.984;2023-05-14T00:38:32;15.59;69.20
47861;HTU21D;33620;52.340;5.984;2023-05-14T00:40:57;15.52;69.35
47861;HTU21D;33620;52.340;5.984;2023-05-14T00:43:23;15.47;69.55
47861;HTU21D;33620;52.340;5.984;2023-05-14T00:45:49;15.43;69.69
47861;HTU21D;33620;52.340;5.984;2023-05-14T00:48:15;15.39;69.93
47861;HTU21D;33620;52.340;5.984;2023-05-14T00:50:41;15.33;70.10
47861;HTU21D;33620;52.340;5.984;2023-05-14T00:53:06;15.31;70.40
47861;HTU21D;33620;52.340;5.984;2023-05-14T00:55:35;15.31;70.25
47861;HTU21D;33620;52.340;5.984;2023-05-14T00:58:01;15.29;70.29
47861;HTU21D;33620;52.340;5.984;2023-05-14T01:00:28;15.24;70.43
47861;HTU21D;33620;52.340;5.984;2023-05-14T01:02:53;15.17;70.72
47861;HTU21D;33620;52.340;5.984;2023-05-14T01:05:19;15.11;70.94
47861;HTU21D;33620;52.340;5.984;2023-05-14T01:08:08;15.10;71.02
47861;HTU21D;33620;52.340;5.984;2023-05-14T01:13:17;15.02;71.13
47861;HTU21D;33620;52.340;5.984;2023-05-14T01:15:46;14.99;71.43
47861;HTU21D;33620;52.340;5.984;2023-05-14T01:18:12;14.99;71.61
47861;HTU21D;33620;52.340;5.984;2023-05-14T01:20:38;15.01;71.48
47861;HTU21D;33620;52.340;5.984;2023-05-14T01:23:03;15.03;71.33
47861;HTU21D;33620;52.340;5.984;2023-05-14T01:25:29;14.96;71.30
47861;HTU21D;33620;52.340;5.984;2023-05-14T01:32:52;14.87;71.86
47861;HTU21D;33620;52.340;5.984;2023-05-14T01:35:19;14.82;72.03
47861;HTU21D;33620;52.340;5.984;2023-05-14T01:37:46;14.74;72.18
47861;HTU21D;33620;52.340;5.984;2023-05-14T01:40:12;14.68;72.45
47861;HTU21D;33620;52.340;5.984;2023-05-14T01:42:38;14.62;72.64
47861;HTU21D;33620;52.340;5.984;2023-05-14T01:45:04;14.57;72.90
47861;HTU21D;33620;52.340;5.984;2023-05-14T01:47:29;14.54;72.92
47861;HTU21D;33620;52.340;5.984;2023-05-14T01:49:55;14.48;73.21
47861;HTU21D;33620;52.340;5.984;2023-05-14T01:52:20;14.42;73.45
47861;HTU21D;33620;52.340;5.984;2023-05-14T01:54:46;14.40;73.57
47861;HTU21D;33620;52.340;5.984;2023-05-14T01:57:11;14.41;73.44
47861;HTU21D;33620;52.340;5.984;2023-05-14T01:59:36;14.38;73.46
47861;HTU21D;33620;52.340;5.984;2023-05-14T02:02:02;14.37;73.44
47861;HTU21D;33620;52.340;5.984;2023-05-14T02:04:27;14.29;73.65
47861;HTU21D;33620;52.340;5.984;2023-05-14T02:06:52;14.29;73.75
47861;HTU21D;33620;52.340;5.984;2023-05-14T02:09:18;14.25;73.73
47861;HTU21D;33620;52.340;5.984;2023-05-14T02:11:43;14.22;73.80
47861;HTU21D;33620;52.340;5.984;2023-05-14T02:14:08;14.19;74.03
47861;HTU21D;33620;52.340;5.984;2023-05-14T02:16:34;14.11;74.03
47861;HTU21D;33620;52.340;5.984;2023-05-14T02:18:59;14.10;74.51
47861;HTU21D;33620;52.340;5.984;2023-05-14T02:21:24;14.11;74.19
47861;HTU21D;33620;52.340;5.984;2023-05-14T02:23:50;14.08;74.37
47861;HTU21D;33620;52.340;5.984;2023-05-14T02:26:15;14.06;74.29
47861;HTU21D;33620;52.340;5.984;2023-05-14T02:28:40;14.01;74.50
47861;HTU21D;33620;52.340;5.984;2023-05-14T02:31:05;13.98;74.68
47861;HTU21D;33620;52.340;5.984;2023-05-14T02:33:31;13.94;74.72
47861;HTU21D;33620;52.340;5.984;2023-05-14T02:35:56;13.92;74.92
47861;HTU21D;33620;52.340;5.984;2023-05-14T02:38:21;13.89;74.74
47861;HTU21D;33620;52.340;5.984;2023-05-14T02:40:47;13.90;75.03
47861;HTU21D;33620;52.340;5.984;2023-05-14T02:43:12;13.86;75.10
47861;HTU21D;33620;52.340;5.984;2023-05-14T02:45:37;13.84;75.05
47861;HTU21D;33620;52.340;5.984;2023-05-14T02:48:03;13.84;75.05
47861;HTU21D;33620;52.340;5.984;2023-05-14T02:50:28;13.81;75.18
47861;HTU21D;33620;52.340;5.984;2023-05-14T02:52:53;13.78;75.33
47861;HTU21D;33620;52.340;5.984;2023-05-14T02:55:19;13.73;75.54
47861;HTU21D;33620;52.340;5.984;2023-05-14T02:57:44;13.70;75.62
47861;HTU21D;33620;52.340;5.984;2023-05-14T03:00:09;13.66;75.63
47861;HTU21D;33620;52.340;5.984;2023-05-14T03:02:35;13.61;75.99
47861;HTU21D;33620;52.340;5.984;2023-05-14T03:05:00;13.61;76.01
47861;HTU21D;33620;52.340;5.984;2023-05-14T03:07:26;13.56;76.25
47861;HTU21D;33620;52.340;5.984;2023-05-14T03:09:51;13.53;76.55
47861;HTU21D;33620;52.340;5.984;2023-05-14T03:12:16;13.53;76.59
47861;HTU21D;33620;52.340;5.984;2023-05-14T03:14:42;13.54;76.54
47861;HTU21D;33620;52.340;5.984;2023-05-14T03:17:08;13.51;76.47
47861;HTU21D;33620;52.340;5.984;2023-05-14T03:19:33;13.48;76.87
47861;HTU21D;33620;52.340;5.984;2023-05-14T03:21:59;13.44;76.91
47861;HTU21D;33620;52.340;5.984;2023-05-14T03:24:24;13.41;77.01
47861;HTU21D;33620;52.340;5.984;2023-05-14T03:26:49;13.37;77.09
47861;HTU21D;33620;52.340;5.984;2023-05-14T03:29:14;13.36;77.26
47861;HTU21D;33620;52.340;5.984;2023-05-14T03:31:42;13.33;77.45
47861;HTU21D;33620;52.340;5.984;2023-05-14T03:34:07;13.33;77.58
47861;HTU21D;33620;52.340;5.984;2023-05-14T03:36:33;13.33;77.50
47861;HTU21D;33620;52.340;5.984;2023-05-14T03:39:00;13.32;77.40
47861;HTU21D;33620;52.340;5.984;2023-05-14T03:41:25;13.25;77.78
47861;HTU21D;33620;52.340;5.984;2023-05-14T03:43:50;13.19;77.96
47861;HTU21D;33620;52.340;5.984;2023-05-14T03:46:16;13.17;78.44
47861;HTU21D;33620;52.340;5.984;2023-05-14T03:48:42;13.20;78.45
47861;HTU21D;33620;52.340;5.984;2023-05-14T03:51:07;13.17;78.37
47861;HTU21D;33620;52.340;5.984;2023-05-14T03:53:32;13.15;78.70
47861;HTU21D;33620;52.340;5.984;2023-05-14T03:55:57;13.12;78.59
47861;HTU21D;33620;52.340;5.984;2023-05-14T03:58:23;13.09;78.91
47861;HTU21D;33620;52.340;5.984;2023-05-14T04:00:48;13.14;79.19
47861;HTU21D;33620;52.340;5.984;2023-05-14T04:03:13;13.18;79.11
47861;HTU21D;33620;52.340;5.984;2023-05-14T04:05:39;13.25;78.83
47861;HTU21D;33620;52.340;5.984;2023-05-14T04:08:04;13.27;78.74
47861;HTU21D;33620;52.340;5.984;2023-05-14T04:10:30;13.26;78.53
47861;HTU21D;33620;52.340;5.984;2023-05-14T04:12:56;13.22;78.79
47861;HTU21D;33620;52.340;5.984;2023-05-14T04:15:21;13.19;78.93
47861;HTU21D;33620;52.340;5.984;2023-05-14T04:17:46;13.19;79.08
47861;HTU21D;33620;52.340;5.984;2023-05-14T04:20:12;13.15;79.34
47861;HTU21D;33620;52.340;5.984;2023-05-14T04:22:37;13.17;79.42
47861;HTU21D;33620;52.340;5.984;2023-05-14T04:25:02;13.15;79.31
47861;HTU21D;33620;52.340;5.984;2023-05-14T04:27:28;13.14;79.45
47861;HTU21D;33620;52.340;5.984;2023-05-14T04:29:53;13.09;79.71
47861;HTU21D;33620;52.340;5.984;2023-05-14T04:32:18;13.03;79.95
47861;HTU21D;33620;52.340;5.984;2023-05-14T04:34:44;13.00;80.28
47861;HTU21D;33620;52.340;5.984;2023-05-14T04:37:10;12.97;80.58
47861;HTU21D;33620;52.340;5.984;2023-05-14T04:39:36;13.01;80.57
47861;HTU21D;33620;52.340;5.984;2023-05-14T04:42:01;12.97;80.69
47861;HTU21D;33620;52.340;5.984;2023-05-14T04:44:27;12.99;80.92
47861;HTU21D;33620;52.340;5.984;2023-05-14T04:46:52;12.96;80.88
47861;HTU21D;33620;52.340;5.984;2023-05-14T04:49:17;13.02;81.16
47861;HTU21D;33620;52.340;5.984;2023-05-14T04:51:43;13.08;80.99
47861;HTU21D;33620;52.340;5.984;2023-05-14T04:54:08;13.11;80.93
47861;HTU21D;33620;52.340;5.984;2023-05-14T04:56:33;13.17;80.73
47861;HTU21D;33620;52.340;5.984;2023-05-14T04:58:59;13.18;80.65
47861;HTU21D;33620;52.340;5.984;2023-05-14T05:01:24;13.20;80.77
47861;HTU21D;33620;52.340;5.984;2023-05-14T05:03:50;13.24;80.96
47861;HTU21D;33620;52.340;5.984;2023-05-14T05:06:15;13.23;80.88
47861;HTU21D;33620;52.340;5.984;2023-05-14T05:08:40;13.20;80.91
47861;HTU21D;33620;52.340;5.984;2023-05-14T05:11:06;13.14;81.33
47861;HTU21D;33620;52.340;5.984;2023-05-14T05:13:31;13.15;81.62
47861;HTU21D;33620;52.340;5.984;2023-05-14T05:15:57;13.21;81.64
47861;HTU21D;33620;52.340;5.984;2023-05-14T05:18:22;13.33;81.22
47861;HTU21D;33620;52.340;5.984;2023-05-14T05:20:47;13.38;81.21
47861;HTU21D;33620;52.340;5.984;2023-05-14T05:23:12;13.39;81.27
47861;HTU21D;33620;52.340;5.984;2023-05-14T05:25:38;13.29;81.24
47861;HTU21D;33620;52.340;5.984;2023-05-14T05:28:03;13.25;81.77
47861;HTU21D;33620;52.340;5.984;2023-05-14T05:30:28;13.31;81.90
47861;HTU21D;33620;52.340;5.984;2023-05-14T05:32:54;13.39;81.55
47861;HTU21D;33620;52.340;5.984;2023-05-14T05:35:21;13.43;81.50
47861;HTU21D;33620;52.340;5.984;2023-05-14T05:37:46;13.40;81.64
47861;HTU21D;33620;52.340;5.984;2023-05-14T05:40:11;13.40;81.78
47861;HTU21D;33620;52.340;5.984;2023-05-14T05:42:38;13.45;81.79
47861;HTU21D;33620;52.340;5.984;2023-05-14T05:45:04;13.53;81.60
47861;HTU21D;33620;52.340;5.984;2023-05-14T05:47:30;13.61;81.14
47861;HTU21D;33620;52.340;5.984;2023-05-14T05:49:55;13.73;80.72
47861;HTU21D;33620;52.340;5.984;2023-05-14T05:52:20;13.76;80.43
47861;HTU21D;33620;52.340;5.984;2023-05-14T05:54:46;13.83;79.98
47861;HTU21D;33620;52.340;5.984;2023-05-14T05:57:11;13.89;79.80
47861;HTU21D;33620;52.340;5.984;2023-05-14T05:59:36;13.97;79.50
47861;HTU21D;33620;52.340;5.984;2023-05-14T06:02:02;13.97;79.59
47861;HTU21D;33620;52.340;5.984;2023-05-14T06:04:27;14.00;80.13
47861;HTU21D;33620;52.340;5.984;2023-05-14T06:06:52;14.10;79.83
47861;HTU21D;33620;52.340;5.984;2023-05-14T06:09:18;14.14;79.19
47861;HTU21D;33620;52.340;5.984;2023-05-14T06:11:43;14.21;79.27
47861;HTU21D;33620;52.340;5.984;2023-05-14T06:14:08;14.28;79.05
47861;HTU21D;33620;52.340;5.984;2023-05-14T06:16:34;14.25;78.95
47861;HTU21D;33620;52.340;5.984;2023-05-14T06:18:59;14.18;79.16
47861;HTU21D;33620;52.340;5.984;2023-05-14T06:21:24;14.14;79.43
47861;HTU21D;33620;52.340;5.984;2023-05-14T06:23:49;14.12;79.61
47861;HTU21D;33620;52.340;5.984;2023-05-14T06:26:15;14.08;79.98
47861;HTU21D;33620;52.340;5.984;2023-05-14T06:28:40;14.03;79.91
47861;HTU21D;33620;52.340;5.984;2023-05-14T06:31:05;13.97;80.24
47861;HTU21D;33620;52.340;5.984;2023-05-14T06:33:31;13.93;80.54
47861;HTU21D;33620;52.340;5.984;2023-05-14T06:35:59;13.92;80.96
47861;HTU21D;33620;52.340;5.984;2023-05-14T06:38:25;13.89;80.86
47861;HTU21D;33620;52.340;5.984;2023-05-14T06:40:50;13.89;81.04
47861;HTU21D;33620;52.340;5.984;2023-05-14T06:43:17;13.89;81.14
47861;HTU21D;33620;52.340;5.984;2023-05-14T06:45:42;13.92;81.38
47861;HTU21D;33620;52.340;5.984;2023-05-14T06:48:07;13.97;81.19
47861;HTU21D;33620;52.340;5.984;2023-05-14T06:50:34;14.05;81.04
47861;HTU21D;33620;52.340;5.984;2023-05-14T06:52:59;14.18;80.78
47861;HTU21D;33620;52.340;5.984;2023-05-14T06:55:25;14.32;79.96
47861;HTU21D;33620;52.340;5.984;2023-05-14T06:57:50;14.44;79.55
47861;HTU21D;33620;52.340;5.984;2023-05-14T07:00:15;14.58;79.41
47861;HTU21D;33620;52.340;5.984;2023-05-14T07:02:41;14.70;79.12
47861;HTU21D;33620;52.340;5.984;2023-05-14T07:05:06;14.85;78.33
47861;HTU21D;33620;52.340;5.984;2023-05-14T07:07:32;14.96;78.47
47861;HTU21D;33620;52.340;5.984;2023-05-14T07:09:58;15.04;76.97
47861;HTU21D;33620;52.340;5.984;2023-05-14T07:12:23;15.09;76.71
47861;HTU21D;33620;52.340;5.984;2023-05-14T07:14:48;15.09;77.02
47861;HTU21D;33620;52.340;5.984;2023-05-14T07:17:14;15.10;76.57
47861;HTU21D;33620;52.340;5.984;2023-05-14T07:19:39;15.13;76.81
47861;HTU21D;33620;52.340;5.984;2023-05-14T07:22:05;15.22;77.18
47861;HTU21D;33620;52.340;5.984;2023-05-14T07:24:30;15.26;76.11
47861;HTU21D;33620;52.340;5.984;2023-05-14T07:26:55;15.26;76.45
47861;HTU21D;33620;52.340;5.984;2023-05-14T07:29:21;15.34;76.53
47861;HTU21D;33620;52.340;5.984;2023-05-14T07:31:47;15.38;75.48
47861;HTU21D;33620;52.340;5.984;2023-05-14T07:34:12;15.42;75.95
47861;HTU21D;33620;52.340;5.984;2023-05-14T07:36:37;15.53;75.65
47861;HTU21D;33620;52.340;5.984;2023-05-14T07:39:03;15.58;75.20
47861;HTU21D;33620;52.340;5.984;2023-05-14T07:41:28;15.67;75.43
47861;HTU21D;33620;52.340;5.984;2023-05-14T07:43:53;15.80;75.50
47861;HTU21D;33620;52.340;5.984;2023-05-14T07:46:18;15.85;75.13
47861;HTU21D;33620;52.340;5.984;2023-05-14T07:48:44;15.95;74.57
47861;HTU21D;33620;52.340;5.984;2023-05-14T07:51:09;16.04;74.38
47861;HTU21D;33620;52.340;5.984;2023-05-14T07:53:36;16.14;74.22
47861;HTU21D;33620;52.340;5.984;2023-05-14T07:56:01;16.22;73.71
47861;HTU21D;33620;52.340;5.984;2023-05-14T07:58:26;16.27;72.83
47861;HTU21D;33620;52.340;5.984;2023-05-14T08:00:53;16.33;72.91
47861;HTU21D;33620;52.340;5.984;2023-05-14T08:03:18;16.44;73.27
47861;HTU21D;33620;52.340;5.984;2023-05-14T08:05:43;16.55;73.16
47861;HTU21D;33620;52.340;5.984;2023-05-14T08:08:09;16.59;73.12
47861;HTU21D;33620;52.340;5.984;2023-05-14T08:10:34;16.70;72.98
47861;HTU21D;33620;52.340;5.984;2023-05-14T08:13:07;16.75;72.01
47861;HTU21D;33620;52.340;5.984;2023-05-14T08:15:32;16.84;71.25
47861;HTU21D;33620;52.340;5.984;2023-05-14T08:17:58;16.95;70.95
47861;HTU21D;33620;52.340;5.984;2023-05-14T08:20:27;17.05;69.70
47861;HTU21D;33620;52.340;5.984;2023-05-14T08:22:53;17.15;69.48
47861;HTU21D;33620;52.340;5.984;2023-05-14T08:25:18;17.24;69.56
47861;HTU21D;33620;52.340;5.984;2023-05-14T08:27:44;17.35;68.58
47861;HTU21D;33620;52.340;5.984;2023-05-14T08:30:09;17.43;68.75
47861;HTU21D;33620;52.340;5.984;2023-05-14T08:32:35;17.47;67.67
47861;HTU21D;33620;52.340;5.984;2023-05-14T08:35:02;17.55;67.15
47861;HTU21D;33620;52.340;5.984;2023-05-14T08:37:27;17.72;67.45
47861;HTU21D;33620;52.340;5.984;2023-05-14T08:39:53;17.84;67.30
47861;HTU21D;33620;52.340;5.984;2023-05-14T08:42:19;17.96;66.65
47861;HTU21D;33620;52.340;5.984;2023-05-14T08:44:52;18.04;65.56
47861;HTU21D;33620;52.340;5.984;2023-05-14T08:47:17;18.17;65.76
47861;HTU21D;33620;52.340;5.984;2023-05-14T08:49:46;18.28;64.85
47861;HTU21D;33620;52.340;5.984;2023-05-14T08:52:11;18.46;65.48
47861;HTU21D;33620;52.340;5.984;2023-05-14T08:54:37;18.56;64.95
47861;HTU21D;33620;52.340;5.984;2023-05-14T08:57:03;18.66;63.08
47861;HTU21D;33620;52.340;5.984;2023-05-14T08:59:28;18.71;61.50
47861;HTU21D;33620;52.340;5.984;2023-05-14T09:01:55;18.80;61.57
47861;HTU21D;33620;52.340;5.984;2023-05-14T09:04:21;18.86;61.85
47861;HTU21D;33620;52.340;5.984;2023-05-14T09:06:50;18.97;61.44
47861;HTU21D;33620;52.340;5.984;2023-05-14T09:09:16;18.98;61.83
47861;HTU21D;33620;52.340;5.984;2023-05-14T09:11:44;19.05;62.00
47861;HTU21D;33620;52.340;5.984;2023-05-14T09:14:09;18.97;61.22
47861;HTU21D;33620;52.340;5.984;2023-05-14T09:16:35;19.03;61.40
47861;HTU21D;33620;52.340;5.984;2023-05-14T09:19:01;19.17;61.91
47861;HTU21D;33620;52.340;5.984;2023-05-14T09:21:27;19.31;61.93
47861;HTU21D;33620;52.340;5.984;2023-05-14T09:23:52;19.43;59.99
47861;HTU21D;33620;52.340;5.984;2023-05-14T09:26:21;19.51;60.58
47861;HTU21D;33620;52.340;5.984;2023-05-14T09:28:47;19.57;60.53
47861;HTU21D;33620;52.340;5.984;2023-05-14T09:31:12;19.69;60.74
47861;HTU21D;33620;52.340;5.984;2023-05-14T09:33:38;19.76;60.12
47861;HTU21D;33620;52.340;5.984;2023-05-14T09:36:03;19.74;60.06
47861;HTU21D;33620;52.340;5.984;2023-05-14T09:38:32;19.73;59.70
47861;HTU21D;33620;52.340;5.984;2023-05-14T09:40:58;19.73;61.05
47861;HTU21D;33620;52.340;5.984;2023-05-14T09:43:23;19.76;61.08
47861;HTU21D;33620;52.340;5.984;2023-05-14T09:45:48;19.77;60.11
47861;HTU21D;33620;52.340;5.984;2023-05-14T09:48:14;19.79;60.54
47861;HTU21D;33620;52.340;5.984;2023-05-14T09:50:43;19.76;61.86
47861;HTU21D;33620;52.340;5.984;2023-05-14T09:53:09;19.88;60.31
47861;HTU21D;33620;52.340;5.984;2023-05-14T09:55:35;20.03;60.28
47861;HTU21D;33620;52.340;5.984;2023-05-14T09:58:00;20.14;58.74
47861;HTU21D;33620;52.340;5.984;2023-05-14T10:00:25;20.10;57.14
47861;HTU21D;33620;52.340;5.984;2023-05-14T10:02:51;20.19;58.70
47861;HTU21D;33620;52.340;5.984;2023-05-14T10:05:17;20.33;58.25
47861;HTU21D;33620;52.340;5.984;2023-05-14T10:07:47;20.43;57.16
47861;HTU21D;33620;52.340;5.984;2023-05-14T10:10:20;20.47;56.11
47861;HTU21D;33620;52.340;5.984;2023-05-14T10:12:53;20.44;56.58
47861;HTU21D;33620;52.340;5.984;2023-05-14T10:15:20;20.40;56.69
47861;HTU21D;33620;52.340;5.984;2023-05-14T10:17:48;20.45;58.05
47861;HTU21D;33620;52.340;5.984;2023-05-14T10:20:14;20.44;56.46
47861;HTU21D;33620;52.340;5.984;2023-05-14T10:22:40;20.49;56.87
47861;HTU21D;33620;52.340;5.984;2023-05-14T10:25:05;20.50;57.09
47861;HTU21D;33620;52.340;5.984;2023-05-14T10:27:32;20.68;58.01
47861;HTU21D;33620;52.340;5.984;2023-05-14T10:29:57;20.69;56.66
47861;HTU21D;33620;52.340;5.984;2023-05-14T10:32:23;20.76;55.46
47861;HTU21D;33620;52.340;5.984;2023-05-14T10:34:50;20.85;54.99
47861;HTU21D;33620;52.340;5.984;2023-05-14T10:37:17;20.98;54.93
47861;HTU21D;33620;52.340;5.984;2023-05-14T10:39:46;20.96;54.80
47861;HTU21D;33620;52.340;5.984;2023-05-14T10:42:14;21.06;52.96
47861;HTU21D;33620;52.340;5.984;2023-05-14T10:44:44;21.11;52.40
47861;HTU21D;33620;52.340;5.984;2023-05-14T10:47:11;21.15;48.53
47861;HTU21D;33620;52.340;5.984;2023-05-14T10:49:36;21.10;48.45
47861;HTU21D;33620;52.340;5.984;2023-05-14T10:52:01;21.13;48.84
47861;HTU21D;33620;52.340;5.984;2023-05-14T10:54:27;21.25;51.76
47861;HTU21D;33620;52.340;5.984;2023-05-14T10:56:52;21.39;50.15
47861;HTU21D;33620;52.340;5.984;2023-05-14T10:59:17;21.48;49.52
47861;HTU21D;33620;52.340;5.984;2023-05-14T11:01:43;21.50;49.21
47861;HTU21D;33620;52.340;5.984;2023-05-14T11:04:09;21.52;49.05
47861;HTU21D;33620;52.340;5.984;2023-05-14T11:06:41;21.59;48.44
47861;HTU21D;33620;52.340;5.984;2023-05-14T11:09:07;21.61;44.04
47861;HTU21D;33620;52.340;5.984;2023-05-14T11:11:32;21.64;45.81
47861;HTU21D;33620;52.340;5.984;2023-05-14T11:13:59;21.74;46.26
47861;HTU21D;33620;52.340;5.984;2023-05-14T11:16:24;21.82;45.93
47861;HTU21D;33620;52.340;5.984;2023-05-14T11:19:01;21.81;44.42
47861;HTU21D;33620;52.340;5.984;2023-05-14T11:21:27;21.83;44.42
47861;HTU21D;33620;52.340;5.984;2023-05-14T11:23:53;21.95;45.82
47861;HTU21D;33620;52.340;5.984;2023-05-14T11:26:19;21.95;43.07
47861;HTU21D;33620;52.340;5.984;2023-05-14T11:28:45;22.04;44.29
47861;HTU21D;33620;52.340;5.984;2023-05-14T11:31:10;22.02;44.13
47861;HTU21D;33620;52.340;5.984;2023-05-14T11:33:36;22.01;45.22
47861;HTU21D;33620;52.340;5.984;2023-05-14T11:36:01;22.03;45.93
47861;HTU21D;33620;52.340;5.984;2023-05-14T11:38:26;22.08;46.83
47861;HTU21D;33620;52.340;5.984;2023-05-14T11:40:53;22.08;45.71
47861;HTU21D;33620;52.340;5.984;2023-05-14T11:43:18;22.03;47.58
47861;HTU21D;33620;52.340;5.984;2023-05-14T11:45:48;22.10;48.48
47861;HTU21D;33620;52.340;5.984;2023-05-14T11:48:13;22.14;48.36
47861;HTU21D;33620;52.340;5.984;2023-05-14T11:50:39;22.25;49.34
47861;HTU21D;33620;52.340;5.984;2023-05-14T11:53:04;22.37;47.24
47861;HTU21D;33620;52.340;5.984;2023-05-14T11:55:32;22.47;47.09
47861;HTU21D;33620;52.340;5.984;2023-05-14T11:57:57;22.55;45.03
47861;HTU21D;33620;52.340;5.984;2023-05-14T12:00:23;22.55;46.35
47861;HTU21D;33620;52.340;5.984;2023-05-14T12:02:50;22.55;46.57
47861;HTU21D;33620;52.340;5.984;2023-05-14T12:05:15;22.58;45.18
47861;HTU21D;33620;52.340;5.984;2023-05-14T12:07:43;22.62;44.78
47861;HTU21D;33620;52.340;5.984;2023-05-14T12:10:10;22.61;42.22
47861;HTU21D;33620;52.340;5.984;2023-05-14T12:12:36;22.70;44.85
47861;HTU21D;33620;52.340;5.984;2023-05-14T12:15:01;22.78;44.70
47861;HTU21D;33620;52.340;5.984;2023-05-14T12:17:26;22.85;43.56
47861;HTU21D;33620;52.340;5.984;2023-05-14T12:19:52;22.86;44.67
47861;HTU21D;33620;52.340;5.984;2023-05-14T12:22:19;22.93;45.40
47861;HTU21D;33620;52.340;5.984;2023-05-14T12:27:20;22.98;42.42
47861;HTU21D;33620;52.340;5.984;2023-05-14T12:29:46;22.93;43.11
47861;HTU21D;33620;52.340;5.984;2023-05-14T12:32:11;22.94;44.09
47861;HTU21D;33620;52.340;5.984;2023-05-14T12:34:36;22.88;45.36
47861;HTU21D;33620;52.340;5.984;2023-05-14T12:37:02;22.91;45.79
47861;HTU21D;33620;52.340;5.984;2023-05-14T12:39:29;22.95;45.68
47861;HTU21D;33620;52.340;5.984;2023-05-14T12:41:54;22.96;46.25
47861;HTU21D;33620;52.340;5.984;2023-05-14T12:44:20;23.01;47.58
47861;HTU21D;33620;52.340;5.984;2023-05-14T12:46:46;22.96;45.06
47861;HTU21D;33620;52.340;5.984;2023-05-14T12:49:11;22.87;45.01
47861;HTU21D;33620;52.340;5.984;2023-05-14T12:51:37;22.82;44.68
47861;HTU21D;33620;52.340;5.984;2023-05-14T12:54:02;22.71;43.87
47861;HTU21D;33620;52.340;5.984;2023-05-14T12:56:27;22.58;42.93
47861;HTU21D;33620;52.340;5.984;2023-05-14T12:58:55;22.40;42.22
47861;HTU21D;33620;52.340;5.984;2023-05-14T13:01:20;22.34;43.16
47861;HTU21D;33620;52.340;5.984;2023-05-14T13:03:46;22.25;43.20
47861;HTU21D;33620;52.340;5.984;2023-05-14T13:06:11;22.19;43.49
47861;HTU21D;33620;52.340;5.984;2023-05-14T13:08:36;22.16;42.20
47861;HTU21D;33620;52.340;5.984;2023-05-14T13:11:01;22.11;42.31
47861;HTU21D;33620;52.340;5.984;2023-05-14T13:13:27;22.09;41.98
47861;HTU21D;33620;52.340;5.984;2023-05-14T13:15:52;22.10;42.97
47861;HTU21D;33620;52.340;5.984;2023-05-14T13:18:17;22.09;42.96
47861;HTU21D;33620;52.340;5.984;2023-05-14T13:20:43;22.04;39.90
47861;HTU21D;33620;52.340;5.984;2023-05-14T13:23:09;22.04;40.56
47861;HTU21D;33620;52.340;5.984;2023-05-14T13:25:34;22.04;40.97
47861;HTU21D;33620;52.340;5.984;2023-05-14T13:27:59;22.01;37.92
47861;HTU21D;33620;52.340;5.984;2023-05-14T13:30:25;21.94;35.82
47861;HTU21D;33620;52.340;5.984;2023-05-14T13:32:50;21.93;37.38
47861;HTU21D;33620;52.340;5.984;2023-05-14T13:35:15;21.95;38.60
47861;HTU21D;33620;52.340;5.984;2023-05-14T13:37:41;21.98;34.78
47861;HTU21D;33620;52.340;5.984;2023-05-14T13:40:07;21.97;34.44
47861;HTU21D;33620;52.340;5.984;2023-05-14T13:42:33;21.98;35.66
47861;HTU21D;33620;52.340;5.984;2023-05-14T13:44:58;22.04;36.47
47861;HTU21D;33620;52.340;5.984;2023-05-14T13:47:24;22.07;36.69
47861;HTU21D;33620;52.340;5.984;2023-05-14T13:49:50;22.06;33.18
47861;HTU21D;33620;52.340;5.984;2023-05-14T13:52:16;22.07;35.07
47861;HTU21D;33620;52.340;5.984;2023-05-14T13:54:41;22.11;34.37
47861;HTU21D;33620;52.340;5.984;2023-05-14T13:57:06;22.13;33.27
47861;HTU21D;33620;52.340;5.984;2023-05-14T13:59:31;22.14;33.56
47861;HTU21D;33620;52.340;5.984;2023-05-14T14:01:57;22.13;30.84
47861;HTU21D;33620;52.340;5.984;2023-05-14T14:04:22;22.12;31.25
47861;HTU21D;33620;52.340;5.984;2023-05-14T14:06:49;22.17;33.67
47861;HTU21D;33620;52.340;5.984;2023-05-14T14:09:15;22.18;33.88
47861;HTU21D;33620;52.340;5.984;2023-05-14T14:11:40;22.17;32.96
47861;HTU21D;33620;52.340;5.984;2023-05-14T14:14:05;22.13;32.03
47861;HTU21D;33620;52.340;5.984;2023-05-14T14:16:31;22.12;33.50
47861;HTU21D;33620;52.340;5.984;2023-05-14T14:18:56;22.14;33.86
47861;HTU21D;33620;52.340;5.984;2023-05-14T14:21:21;22.12;37.40
47861;HTU21D;33620;52.340;5.984;2023-05-14T14:23:47;22.04;43.24
47861;HTU21D;33620;52.340;5.984;2023-05-14T14:26:12;21.97;44.89
47861;HTU21D;33620;52.340;5.984;2023-05-14T14:28:37;21.89;45.46
47861;HTU21D;33620;52.340;5.984;2023-05-14T14:31:04;21.89;45.99
47861;HTU21D;33620;52.340;5.984;2023-05-14T14:33:29;21.93;46.47
47861;HTU21D;33620;52.340;5.984;2023-05-14T14:35:54;21.85;45.32
47861;HTU21D;33620;52.340;5.984;2023-05-14T14:38:20;21.90;46.07
47861;HTU21D;33620;52.340;5.984;2023-05-14T14:40:45;21.83;44.01
47861;HTU21D;33620;52.340;5.984;2023-05-14T14:43:10;21.82;43.93
47861;HTU21D;33620;52.340;5.984;2023-05-14T14:45:36;21.83;44.76
47861;HTU21D;33620;52.340;5.984;2023-05-14T14:50:45;21.94;43.84
47861;HTU21D;33620;52.340;5.984;2023-05-14T14:53:10;22.04;44.90
47861;HTU21D;33620;52.340;5.984;2023-05-14T14:55:35;21.96;43.48
47861;HTU21D;33620;52.340;5.984;2023-05-14T14:58:01;22.04;44.04
47861;HTU21D;33620;52.340;5.984;2023-05-14T15:00:26;22.11;43.78
47861;HTU21D;33620;52.340;5.984;2023-05-14T15:02:51;22.11;39.12
47861;HTU21D;33620;52.340;5.984;2023-05-14T15:05:16;22.04;39.49
47861;HTU21D;33620;52.340;5.984;2023-05-14T15:07:42;22.02;37.95
47861;HTU21D;33620;52.340;5.984;2023-05-14T15:10:07;22.03;38.46
47861;HTU21D;33620;52.340;5.984;2023-05-14T15:12:32;22.07;38.88
47861;HTU21D;33620;52.340;5.984;2023-05-14T15:14:58;22.07;37.72
47861;HTU21D;33620;52.340;5.984;2023-05-14T15:17:23;22.05;37.56
47861;HTU21D;33620;52.340;5.984;2023-05-14T15:19:51;22.11;38.24